createdAt,value
2023-04-28T00:02:05.464Z,15.70
2023-04-28T00:04:32.914Z,15.70
2023-04-28T00:07:00.350Z,15.70
2023-04-28T00:09:27.695Z,15.60
2023-04-28T00:11:54.982Z,15.60
2023-04-28T00:14:22.330Z,15.60
2023-04-28T00:16:49.688Z,15.60
2023-04-28T00:19:17.137Z,15.60
2023-04-28T00:21:44.530Z,15.60
2023-04-28T00:24:11.707Z,15.50
2023-04-28T00:26:39.064Z,15.50
2023-04-28T00:29:06.316Z,15.50
2023-04-28T00:31:35.487Z,15.50
2023-04-28T00:34:02.939Z,15.50
2023-04-28T00:36:32.434Z,15.50
2023-04-28T00:39:00.162Z,15.60
2023-04-28T00:41:27.552Z,15.70
2023-04-28T00:43:54.812Z,15.70
2023-04-28T00:46:29.851Z,15.70
2023-04-28T00:48:58.528Z,15.70
2023-04-28T00:51:27.823Z,15.70
2023-04-28T00:53:56.834Z,15.70
2023-04-28T00:56:24.860Z,15.70
2023-04-28T00:58:52.088Z,15.60
2023-04-28T01:01:19.668Z,15.50
2023-04-28T01:03:47.743Z,15.50
2023-04-28T01:06:18.361Z,15.50
2023-04-28T01:08:49.820Z,15.50
2023-04-28T01:11:18.123Z,15.50
2023-04-28T01:14:05.883Z,15.50
2023-04-28T01:16:38.617Z,15.60
2023-04-28T01:19:20.354Z,15.60
2023-04-28T01:21:48.147Z,15.60
2023-04-28T01:24:21.248Z,15.70
2023-04-28T01:26:48.620Z,15.70
2023-04-28T01:29:15.988Z,15.70
2023-04-28T01:31:43.609Z,15.60
2023-04-28T01:34:10.997Z,15.60
2023-04-28T01:36:38.439Z,15.60
2023-04-28T01:39:06.378Z,15.60
2023-04-28T01:41:36.672Z,15.70
2023-04-28T01:44:06.440Z,15.70
2023-04-28T01:46:34.355Z,15.70
2023-04-28T01:49:01.723Z,15.70
2023-04-28T01:51:29.031Z,15.70
2023-04-28T01:53:56.633Z,15.80
2023-04-28T01:56:24.677Z,15.80
2023-04-28T01:58:54.015Z,15.70
2023-04-28T02:01:21.483Z,15.70
2023-04-28T02:03:49.385Z,15.50
2023-04-28T02:06:17.613Z,15.50
2023-04-28T02:08:44.849Z,15.40
2023-04-28T02:11:13.404Z,15.30
2023-04-28T02:13:41.805Z,15.30
2023-04-28T02:16:10.080Z,15.30
2023-04-28T02:18:37.377Z,15.30
2023-04-28T02:21:12.115Z,15.30
2023-04-28T02:23:40.591Z,15.30
2023-04-28T02:26:07.857Z,15.30
2023-04-28T02:28:35.143Z,15.30
2023-04-28T02:31:10.259Z,15.20
2023-04-28T02:33:39.063Z,15.20
2023-04-28T02:36:07.286Z,15.10
2023-04-28T02:38:34.922Z,15.10
2023-04-28T02:41:05.226Z,15.10
2023-04-28T02:43:33.640Z,15.10
2023-04-28T02:46:02.928Z,15.00
2023-04-28T02:48:30.499Z,15.00
2023-04-28T02:50:58.289Z,15.00
2023-04-28T02:53:25.677Z,14.90
2023-04-28T02:55:53.154Z,14.80
2023-04-28T02:58:20.849Z,14.90
2023-04-28T03:00:48.875Z,14.90
2023-04-28T03:03:17.619Z,14.90
2023-04-28T03:05:44.986Z,14.80
2023-04-28T03:08:12.418Z,14.80
2023-04-28T03:10:39.768Z,14.80
2023-04-28T03:13:07.340Z,14.80
2023-04-28T03:15:35.148Z,14.80
2023-04-28T03:18:02.507Z,14.90
2023-04-28T03:20:29.856Z,14.90
2023-04-28T03:22:57.294Z,15.00
2023-04-28T03:25:24.709Z,15.00
2023-04-28T03:27:52.546Z,15.10
2023-04-28T03:30:20.137Z,15.10
2023-04-28T03:32:47.606Z,15.10
2023-04-28T03:35:16.126Z,15.10
2023-04-28T03:37:44.802Z,15.10
2023-04-28T03:40:12.685Z,15.00
2023-04-28T03:43:04.876Z,15.00
2023-04-28T03:45:47.129Z,14.90
2023-04-28T03:48:14.658Z,14.90
2023-04-28T03:50:42.683Z,14.80
2023-04-28T03:53:10.032Z,14.80
2023-04-28T03:55:38.212Z,14.70
2023-04-28T03:58:05.767Z,14.70
2023-04-28T04:00:34.795Z,14.70
2023-04-28T04:03:02.175Z,14.60
2023-04-28T04:05:29.988Z,14.60
2023-04-28T04:07:58.268Z,14.50
2023-04-28T04:10:25.895Z,14.50
2023-04-28T04:12:53.323Z,14.40
2023-04-28T04:15:21.086Z,14.40
2023-04-28T04:17:50.019Z,14.30
2023-04-28T04:20:17.465Z,14.30
2023-04-28T04:22:46.380Z,14.30
2023-04-28T04:25:15.260Z,14.30
2023-04-28T04:27:44.208Z,14.30
2023-04-28T04:30:11.980Z,14.30
2023-04-28T04:32:39.624Z,14.40
2023-04-28T04:35:07.579Z,14.40
2023-04-28T04:37:35.385Z,14.40
2023-04-28T04:40:03.760Z,14.50
2023-04-28T04:42:37.416Z,14.50
2023-04-28T04:45:14.422Z,14.50
2023-04-28T04:47:42.809Z,14.60
2023-04-28T04:50:12.244Z,14.60
2023-04-28T04:52:40.007Z,14.70
2023-04-28T04:55:08.116Z,14.80
2023-04-28T04:57:35.588Z,14.90
2023-04-28T05:00:31.792Z,14.90
2023-04-28T05:03:00.807Z,15.00
2023-04-28T05:05:28.339Z,15.10
2023-04-28T05:08:27.930Z,15.20
2023-04-28T05:10:55.279Z,15.20
2023-04-28T05:13:22.615Z,15.30
2023-04-28T05:15:58.614Z,15.40
2023-04-28T05:18:38.177Z,15.50
2023-04-28T05:21:05.627Z,15.60
2023-04-28T05:23:34.000Z,15.60
2023-04-28T05:26:01.397Z,15.70
2023-04-28T05:28:28.790Z,15.80
2023-04-28T05:30:58.776Z,15.80
2023-04-28T05:33:26.920Z,15.90
2023-04-28T05:35:54.426Z,16.00
2023-04-28T05:38:23.297Z,16.10
2023-04-28T05:40:51.897Z,16.20
2023-04-28T05:43:19.258Z,16.20
2023-04-28T05:45:48.000Z,16.30
2023-04-28T05:48:16.377Z,16.30
2023-04-28T05:50:44.742Z,16.40
2023-04-28T05:53:12.433Z,16.50
2023-04-28T05:55:39.764Z,16.60
2023-04-28T05:58:07.118Z,16.70
2023-04-28T06:00:34.696Z,16.90
2023-04-28T06:03:02.438Z,17.00
2023-04-28T06:05:31.227Z,17.10
2023-04-28T06:07:58.804Z,17.20
2023-04-28T06:10:26.916Z,17.20
2023-04-28T06:12:54.193Z,17.30
2023-04-28T06:15:21.732Z,17.40
2023-04-28T06:17:49.185Z,17.50
2023-04-28T06:20:17.531Z,17.60
2023-04-28T06:22:45.209Z,17.70
2023-04-28T06:25:12.654Z,17.80
2023-04-28T06:27:45.426Z,18.00
2023-04-28T06:30:20.410Z,18.10
2023-04-28T06:32:47.987Z,18.10
2023-04-28T06:35:16.567Z,18.10
2023-04-28T06:37:43.889Z,18.30
2023-04-28T06:40:11.578Z,18.40
2023-04-28T06:42:42.341Z,18.50
2023-04-28T06:45:19.020Z,18.70
2023-04-28T06:47:46.416Z,18.70
2023-04-28T06:50:13.667Z,18.60
2023-04-28T06:52:41.014Z,18.60
2023-04-28T06:55:11.960Z,18.70
2023-04-28T06:57:39.265Z,18.70
2023-04-28T07:00:08.332Z,18.80
2023-04-28T07:02:37.109Z,18.90
2023-04-28T07:05:05.327Z,18.90
2023-04-28T07:07:32.968Z,19.00
2023-04-28T07:10:01.227Z,19.20
2023-04-28T07:12:28.766Z,19.20
2023-04-28T07:14:56.255Z,19.30
2023-04-28T07:17:23.575Z,19.30
2023-04-28T07:19:53.368Z,19.20
2023-04-28T07:22:20.797Z,19.30
2023-04-28T07:24:48.091Z,19.40
2023-04-28T07:27:15.394Z,19.30
2023-04-28T07:29:42.766Z,19.30
2023-04-28T07:32:10.957Z,19.50
2023-04-28T07:34:38.640Z,19.50
2023-04-28T07:37:07.038Z,19.40
2023-04-28T07:39:35.555Z,19.40
2023-04-28T07:42:03.710Z,19.50
2023-04-28T07:44:32.155Z,19.70
2023-04-28T07:47:01.024Z,19.80
2023-04-28T07:49:31.822Z,19.90
2023-04-28T07:51:59.062Z,20.10
2023-04-28T07:54:26.638Z,20.20
2023-04-28T07:56:53.936Z,20.30
2023-04-28T07:59:21.353Z,20.20
2023-04-28T08:01:48.767Z,20.10
2023-04-28T08:04:16.280Z,20.10
2023-04-28T08:06:43.774Z,20.30
2023-04-28T08:09:11.564Z,20.30
2023-04-28T08:11:38.946Z,20.30
2023-04-28T08:14:06.303Z,20.20
2023-04-28T08:16:36.868Z,20.20
2023-04-28T08:19:04.352Z,20.20
2023-04-28T08:21:33.017Z,20.10
2023-04-28T08:24:00.490Z,20.30
2023-04-28T08:26:27.908Z,20.40
2023-04-28T08:28:56.177Z,20.50
2023-04-28T08:31:24.155Z,20.70
2023-04-28T08:33:51.531Z,20.90
2023-04-28T08:36:19.353Z,21.00
2023-04-28T08:38:47.687Z,21.00
2023-04-28T08:41:16.841Z,20.80
2023-04-28T08:43:45.014Z,21.00
2023-04-28T08:46:14.899Z,21.00
2023-04-28T08:48:45.893Z,20.80
2023-04-28T08:51:34.605Z,20.90
2023-04-28T08:54:29.196Z,20.70
2023-04-28T08:56:52.717Z,20.50
2023-04-28T08:59:21.143Z,20.60
2023-04-28T09:01:50.424Z,20.60
2023-04-28T09:04:18.946Z,20.70
2023-04-28T09:06:47.002Z,20.90
2023-04-28T09:09:26.825Z,20.70
2023-04-28T09:11:59.828Z,20.80
2023-04-28T09:14:28.931Z,21.00
2023-04-28T09:16:56.954Z,21.10
2023-04-28T09:19:24.635Z,21.10
2023-04-28T09:21:56.934Z,20.90
2023-04-28T09:24:31.785Z,21.00
2023-04-28T09:27:07.777Z,21.10
2023-04-28T09:29:35.116Z,21.20
2023-04-28T09:32:20.390Z,20.90
2023-04-28T09:34:49.843Z,20.90
2023-04-28T09:37:25.144Z,20.90
2023-04-28T09:39:54.852Z,21.10
2023-04-28T09:42:45.142Z,21.10
2023-04-28T09:45:14.175Z,21.20
2023-04-28T09:47:46.979Z,21.20
2023-04-28T09:50:17.649Z,21.10
2023-04-28T09:52:57.931Z,21.10
2023-04-28T09:55:26.018Z,21.10
2023-04-28T09:57:55.405Z,21.10
2023-04-28T10:00:23.631Z,21.20
2023-04-28T10:02:52.455Z,21.20
2023-04-28T10:05:21.220Z,21.10
2023-04-28T10:07:48.714Z,20.80
2023-04-28T10:10:16.538Z,20.90
2023-04-28T10:12:45.042Z,21.00
2023-04-28T10:15:13.819Z,20.90
2023-04-28T10:17:41.256Z,20.70
2023-04-28T10:20:09.332Z,20.50
2023-04-28T10:22:42.451Z,20.50
2023-04-28T10:25:12.577Z,20.80
2023-04-28T10:27:44.918Z,21.20
2023-04-28T10:30:30.562Z,21.00
2023-04-28T10:33:06.948Z,21.00
2023-04-28T10:35:36.506Z,21.30
2023-04-28T10:38:09.368Z,21.40
2023-04-28T10:40:43.632Z,21.10
2023-04-28T10:43:32.940Z,21.20
2023-04-28T10:46:04.900Z,21.40
2023-04-28T10:48:35.342Z,21.60
2023-04-28T10:51:09.669Z,21.80
2023-04-28T10:53:50.459Z,21.50
2023-04-28T10:56:21.658Z,21.50
2023-04-28T10:58:51.025Z,21.00
2023-04-28T11:01:32.508Z,20.90
2023-04-28T11:04:03.137Z,21.60
2023-04-28T11:06:40.934Z,22.10
2023-04-28T11:09:20.382Z,22.60
2023-04-28T11:12:10.751Z,22.20
2023-04-28T11:14:40.921Z,22.30
2023-04-28T11:17:11.604Z,22.30
2023-04-28T11:19:45.991Z,22.70
2023-04-28T11:22:18.859Z,23.10
2023-04-28T11:25:00.030Z,23.60
2023-04-28T11:27:32.513Z,24.40
2023-04-28T11:30:01.852Z,24.50
2023-04-28T11:32:36.743Z,24.10
2023-04-28T11:35:10.172Z,23.60
2023-04-28T11:37:37.797Z,24.20
2023-04-28T11:40:14.578Z,24.20
2023-04-28T11:42:51.599Z,24.40
2023-04-28T11:45:19.046Z,24.30
2023-04-28T11:47:46.384Z,24.10
2023-04-28T11:50:14.740Z,24.30
2023-04-28T11:52:53.616Z,24.10
2023-04-28T11:55:21.321Z,24.50
2023-04-28T11:57:48.527Z,24.60
2023-04-28T12:00:22.871Z,24.50
2023-04-28T12:02:51.094Z,24.70
2023-04-28T12:05:20.844Z,24.40
2023-04-28T12:07:48.607Z,24.70
2023-04-28T12:10:17.803Z,24.90
2023-04-28T12:12:51.832Z,25.00
2023-04-28T12:15:22.527Z,25.30
2023-04-28T12:17:51.554Z,25.70
2023-04-28T12:20:39.096Z,25.20
2023-04-28T12:23:08.132Z,24.70
2023-04-28T12:25:45.083Z,24.70
2023-04-28T12:28:12.513Z,25.30
2023-04-28T12:30:42.439Z,24.90
2023-04-28T12:33:27.629Z,24.90
2023-04-28T12:35:56.621Z,24.90
2023-04-28T12:38:25.013Z,24.30
2023-04-28T12:40:53.115Z,24.60
2023-04-28T12:43:23.465Z,25.20
2023-04-28T12:45:53.634Z,25.60
2023-04-28T12:48:22.538Z,25.90
2023-04-28T12:50:49.818Z,26.00
2023-04-28T12:53:17.293Z,25.90
2023-04-28T12:55:44.558Z,25.60
2023-04-28T12:58:12.126Z,26.10
2023-04-28T13:00:39.458Z,25.30
2023-04-28T13:03:07.184Z,25.40
2023-04-28T13:05:35.288Z,25.00
2023-04-28T13:08:02.708Z,25.40
2023-04-28T13:10:30.099Z,25.60
2023-04-28T13:12:57.624Z,25.20
2023-04-28T13:15:25.068Z,25.40
2023-04-28T13:17:52.434Z,26.10
2023-04-28T13:20:19.881Z,26.30
2023-04-28T13:22:47.493Z,26.50
2023-04-28T13:25:15.439Z,26.80
2023-04-28T13:27:43.436Z,26.70
2023-04-28T13:30:11.869Z,26.20
2023-04-28T13:32:39.250Z,26.10
2023-04-28T13:35:07.277Z,25.80
2023-04-28T13:37:35.515Z,26.20
2023-04-28T13:40:04.511Z,25.90
2023-04-28T13:42:31.853Z,25.60
2023-04-28T13:44:59.089Z,25.40
2023-04-28T13:47:26.841Z,24.80
2023-04-28T13:49:54.184Z,25.60
2023-04-28T13:52:22.762Z,25.90
2023-04-28T13:54:50.190Z,26.40
2023-04-28T13:57:17.667Z,26.80
2023-04-28T13:59:45.758Z,26.50
2023-04-28T14:02:13.268Z,26.50
2023-04-28T14:04:40.609Z,26.40
2023-04-28T14:07:08.896Z,25.50
2023-04-28T14:09:36.122Z,25.10
2023-04-28T14:12:03.453Z,25.10
2023-04-28T14:14:31.854Z,25.10
2023-04-28T14:16:59.649Z,24.30
2023-04-28T14:19:28.229Z,23.40
2023-04-28T14:21:55.711Z,23.30
2023-04-28T14:24:23.741Z,23.30
2023-04-28T14:26:51.134Z,23.00
2023-04-28T14:29:18.363Z,23.00
2023-04-28T14:31:46.278Z,22.90
2023-04-28T14:34:13.543Z,22.70
2023-04-28T14:36:42.461Z,22.40
2023-04-28T14:39:09.815Z,22.30
2023-04-28T14:41:37.164Z,22.10
2023-04-28T14:44:04.599Z,22.10
2023-04-28T14:46:31.989Z,22.10
2023-04-28T14:48:59.551Z,22.00
2023-04-28T14:51:27.005Z,21.70
2023-04-28T14:53:54.610Z,21.70
2023-04-28T14:56:21.924Z,21.60
2023-04-28T14:58:50.129Z,21.70
2023-04-28T15:01:18.508Z,21.60
2023-04-28T15:03:46.530Z,21.60
2023-04-28T15:06:13.907Z,21.60
2023-04-28T15:08:41.444Z,21.60
2023-04-28T15:11:08.876Z,21.70
2023-04-28T15:13:36.454Z,21.60
2023-04-28T15:16:03.809Z,21.60
2023-04-28T15:18:31.277Z,21.40
2023-04-28T15:20:58.548Z,21.30
2023-04-28T15:23:26.211Z,21.30
2023-04-28T15:25:54.286Z,21.40
2023-04-28T15:28:22.272Z,21.30
2023-04-28T15:30:49.581Z,21.40
2023-04-28T15:33:19.643Z,21.50
2023-04-28T15:35:47.297Z,21.40
2023-04-28T15:38:14.761Z,21.20
2023-04-28T15:40:42.670Z,21.10
2023-04-28T15:43:10.161Z,21.10
2023-04-28T15:45:38.969Z,21.20
2023-04-28T15:48:06.819Z,21.00
2023-04-28T15:50:34.909Z,21.20
2023-04-28T15:53:02.291Z,21.20
2023-04-28T15:55:29.822Z,21.20
2023-04-28T15:57:57.380Z,21.20
2023-04-28T16:00:24.745Z,21.30
2023-04-28T16:02:52.393Z,21.20
2023-04-28T16:05:19.964Z,21.00
2023-04-28T16:07:48.642Z,21.00
2023-04-28T16:10:16.898Z,20.90
2023-04-28T16:12:44.578Z,20.90
2023-04-28T16:15:13.587Z,20.90
2023-04-28T16:17:41.918Z,20.90
2023-04-28T16:20:11.323Z,20.90
2023-04-28T16:22:40.669Z,20.90
2023-04-28T16:25:09.462Z,20.70
2023-04-28T16:27:37.588Z,20.70
2023-04-28T16:30:08.708Z,20.70
2023-04-28T16:32:39.172Z,20.70
2023-04-28T16:35:11.839Z,20.60
2023-04-28T16:37:41.499Z,20.70
2023-04-28T16:40:09.650Z,20.60
2023-04-28T16:42:37.053Z,20.60
2023-04-28T16:45:04.929Z,20.50
2023-04-28T16:47:33.645Z,20.60
2023-04-28T16:50:01.166Z,20.30
2023-04-28T16:52:28.376Z,20.30
2023-04-28T16:54:55.817Z,20.20
2023-04-28T16:57:23.151Z,20.20
2023-04-28T16:59:51.273Z,20.20
2023-04-28T17:02:19.005Z,20.20
2023-04-28T17:04:46.435Z,20.10
2023-04-28T17:07:13.786Z,19.90
2023-04-28T17:09:41.080Z,19.90
2023-04-28T17:12:08.405Z,19.90
2023-04-28T17:14:38.739Z,20.00
2023-04-28T17:17:06.064Z,19.90
2023-04-28T17:19:33.444Z,19.90
2023-04-28T17:22:01.011Z,19.90
2023-04-28T17:24:28.362Z,19.90
2023-04-28T17:26:55.639Z,19.80
2023-04-28T17:29:23.426Z,19.70
2023-04-28T17:31:50.889Z,19.60
2023-04-28T17:34:20.092Z,19.60
2023-04-28T17:36:47.559Z,19.60
2023-04-28T17:39:16.636Z,19.60
2023-04-28T17:41:45.310Z,19.60
2023-04-28T17:44:12.656Z,19.60
2023-04-28T17:46:40.115Z,19.60
2023-04-28T17:49:07.336Z,19.50
2023-04-28T17:51:34.768Z,19.50
2023-04-28T17:54:02.068Z,19.50
2023-04-28T17:56:29.752Z,19.50
2023-04-28T17:58:57.214Z,19.40
2023-04-28T18:01:24.564Z,19.40
2023-04-28T18:03:52.020Z,19.40
2023-04-28T18:06:22.465Z,19.30
2023-04-28T18:08:50.121Z,19.40
2023-04-28T18:11:17.503Z,19.40
2023-04-28T18:13:44.855Z,19.50
2023-04-28T18:16:15.107Z,19.50
2023-04-28T18:18:42.597Z,19.60
2023-04-28T18:21:10.248Z,19.60
2023-04-28T18:23:37.715Z,19.60
2023-04-28T18:26:05.123Z,19.70
2023-04-28T18:28:34.282Z,19.70
2023-04-28T18:31:07.631Z,19.60
2023-04-28T18:33:35.060Z,19.60
2023-04-28T18:36:05.312Z,19.60
2023-04-28T18:38:35.351Z,19.60
2023-04-28T18:41:16.293Z,19.50
2023-04-28T18:43:44.517Z,19.50
2023-04-28T18:46:11.889Z,19.50
2023-04-28T18:48:40.316Z,19.40
2023-04-28T18:51:07.965Z,19.40
2023-04-28T18:53:36.645Z,19.40
2023-04-28T18:56:04.097Z,19.30
2023-04-28T18:58:31.559Z,19.30
2023-04-28T19:00:58.911Z,19.30
2023-04-28T19:03:26.491Z,19.20
2023-04-28T19:05:54.118Z,19.10
2023-04-28T19:08:21.413Z,19.10
2023-04-28T19:10:49.228Z,19.00
2023-04-28T19:13:16.532Z,19.00
2023-04-28T19:15:43.775Z,19.00
2023-04-28T19:18:11.409Z,18.90
2023-04-28T19:20:39.294Z,18.80
2023-04-28T19:23:08.132Z,18.80
2023-04-28T19:25:36.963Z,18.80
2023-04-28T19:28:04.388Z,18.80
2023-04-28T19:30:31.798Z,18.80
2023-04-28T19:32:59.241Z,18.70
2023-04-28T19:35:27.285Z,18.70
2023-04-28T19:37:56.014Z,18.60
2023-04-28T19:40:23.599Z,18.60
2023-04-28T19:42:51.332Z,18.50
2023-04-28T19:45:19.295Z,18.50
2023-04-28T19:47:46.616Z,18.40
2023-04-28T19:50:13.838Z,18.40
2023-04-28T19:52:41.861Z,18.40
2023-04-28T19:55:09.707Z,18.40
2023-04-28T19:57:37.452Z,18.40
2023-04-28T20:00:05.369Z,18.40
2023-04-28T20:02:35.255Z,18.40
2023-04-28T20:05:03.854Z,18.40
2023-04-28T20:07:31.227Z,18.30
2023-04-28T20:09:58.867Z,18.40
2023-04-28T20:12:26.713Z,18.40
2023-04-28T20:14:54.401Z,18.40
2023-04-28T20:17:22.259Z,18.50
2023-04-28T20:19:49.764Z,18.40
2023-04-28T20:22:17.283Z,18.40
2023-04-28T20:24:44.612Z,18.40
2023-04-28T20:27:12.706Z,18.50
2023-04-28T20:29:39.931Z,18.40
2023-04-28T20:32:07.577Z,18.50
2023-04-28T20:34:35.020Z,18.40
2023-04-28T20:37:06.752Z,18.40
2023-04-28T20:39:34.148Z,18.40
2023-04-28T20:42:02.155Z,18.30
2023-04-28T20:44:29.376Z,18.30
2023-04-28T20:46:56.757Z,18.20
2023-04-28T20:49:24.690Z,18.20
2023-04-28T20:51:54.511Z,18.20
2023-04-28T20:54:21.940Z,18.20
2023-04-28T20:56:49.204Z,18.20
2023-04-28T20:59:16.409Z,18.10
2023-04-28T21:01:44.895Z,18.20
2023-04-28T21:04:12.448Z,18.20
2023-04-28T21:06:39.960Z,18.20
2023-04-28T21:09:07.237Z,18.10
2023-04-28T21:11:34.629Z,18.20
2023-04-28T21:14:02.015Z,18.20
2023-04-28T21:16:29.271Z,18.20
2023-04-28T21:18:56.867Z,18.20
2023-04-28T21:21:24.294Z,18.10
2023-04-28T21:23:51.611Z,18.10
2023-04-28T21:26:24.043Z,18.00
2023-04-28T21:28:51.321Z,18.00
2023-04-28T21:31:18.614Z,17.90
2023-04-28T21:33:45.997Z,17.90
2023-04-28T21:36:13.701Z,17.90
2023-04-28T21:38:41.118Z,17.90
2023-04-28T21:41:08.995Z,17.90
2023-04-28T21:43:36.277Z,17.80
2023-04-28T21:46:03.769Z,17.80
2023-04-28T21:48:31.127Z,17.90
2023-04-28T21:50:59.165Z,17.80
2023-04-28T21:53:26.668Z,17.80
2023-04-28T21:55:53.955Z,17.70
2023-04-28T21:58:21.330Z,17.70
2023-04-28T22:00:48.923Z,17.70
2023-04-28T22:03:16.748Z,17.70
2023-04-28T22:05:45.270Z,17.70
2023-04-28T22:08:13.576Z,17.60
2023-04-28T22:10:41.154Z,17.60
2023-04-28T22:13:09.234Z,17.60
2023-04-28T22:15:36.858Z,17.60
2023-04-28T22:18:04.958Z,17.50
2023-04-28T22:20:32.726Z,17.50
2023-04-28T22:23:00.364Z,17.50
2023-04-28T22:25:27.721Z,17.50
2023-04-28T22:27:55.004Z,17.50
2023-04-28T22:30:24.353Z,17.50
2023-04-28T22:32:53.225Z,17.50
2023-04-28T22:35:20.597Z,17.50
2023-04-28T22:37:48.138Z,17.40
2023-04-28T22:40:15.565Z,17.40
2023-04-28T22:42:43.118Z,17.40
2023-04-28T22:45:10.909Z,17.40
2023-04-28T22:47:39.784Z,17.50
2023-04-28T22:50:10.161Z,17.50
2023-04-28T22:52:38.360Z,17.40
2023-04-28T22:55:06.582Z,17.40
2023-04-28T22:57:34.279Z,17.30
2023-04-28T23:00:02.395Z,17.30
2023-04-28T23:02:30.056Z,17.30
2023-04-28T23:04:57.659Z,17.30
2023-04-28T23:07:25.623Z,17.30
2023-04-28T23:09:53.325Z,17.30
2023-04-28T23:12:21.330Z,17.30
2023-04-28T23:14:48.635Z,17.30
2023-04-28T23:17:16.480Z,17.20
2023-04-28T23:19:43.848Z,17.20
2023-04-28T23:22:11.246Z,17.20
2023-04-28T23:24:40.121Z,17.20
2023-04-28T23:27:08.054Z,17.20
2023-04-28T23:29:36.131Z,17.10
2023-04-28T23:32:04.417Z,17.10
2023-04-28T23:34:31.738Z,17.10
2023-04-28T23:36:59.111Z,17.10
2023-04-28T23:39:26.453Z,17.10
2023-04-28T23:41:54.288Z,17.10
2023-04-28T23:44:21.553Z,17.10
2023-04-28T23:46:49.516Z,17.10
2023-04-28T23:49:16.837Z,17.10
2023-04-28T23:51:44.236Z,17.10
2023-04-28T23:54:11.944Z,17.00
2023-04-28T23:56:39.324Z,17.00
2023-04-28T23:59:06.581Z,17.00
